sensor_id;sensor_type;location;lat;lon;timestamp;P1;durP1;ratioP1;P2;durP2;ratioP2
31442;SDS011;18065;55.876;9.830;2024-03-23T00:54:35;3.42;;;1.08;;
31442;SDS011;18065;55.876;9.830;2024-03-23T00:57:01;4.00;;;1.10;;
31442;SDS011;18065;55.876;9.830;2024-03-23T00:59:27;2.95;;;1.17;;
31442;SDS011;18065;55.876;9.830;2024-03-23T01:01:54;3.75;;;1.25;;
31442;SDS011;18065;55.876;9.830;2024-03-23T01:04:20;4.20;;;1.65;;
31442;SDS011;18065;55.876;9.830;2024-03-23T01:06:46;2.83;;;1.20;;
31442;SDS011;18065;55.876;9.830;2024-03-23T01:09:12;2.97;;;1.15;;
31442;SDS011;18065;55.876;9.830;2024-03-23T01:11:41;2.20;;;0.90;;
31442;SDS011;18065;55.876;9.830;2024-03-23T01:14:07;2.80;;;1.23;;
31442;SDS011;18065;55.876;9.830;2024-03-23T01:16:33;4.80;;;1.38;;
31442;SDS011;18065;55.876;9.830;2024-03-23T01:18:59;3.38;;;1.40;;
31442;SDS011;18065;55.876;9.830;2024-03-23T01:21:26;4.28;;;1.40;;
31442;SDS011;18065;55.876;9.830;2024-03-23T01:23:55;3.75;;;1.40;;
31442;SDS011;18065;55.876;9.830;2024-03-23T01:26:21;3.40;;;1.48;;
31442;SDS011;18065;55.876;9.830;2024-03-23T01:28:50;4.43;;;1.40;;
31442;SDS011;18065;55.876;9.830;2024-03-23T01:31:16;4.45;;;1.45;;
31442;SDS011;18065;55.876;9.830;2024-03-23T01:33:42;3.30;;;1.48;;
31442;SDS011;18065;55.876;9.830;2024-03-23T01:36:08;3.45;;;1.38;;
31442;SDS011;18065;55.876;9.830;2024-03-23T01:38:34;2.83;;;1.33;;
31442;SDS011;18065;55.876;9.830;2024-03-23T01:41:00;5.32;;;1.45;;
31442;SDS011;18065;55.876;9.830;2024-03-23T01:43:26;3.40;;;1.17;;
31442;SDS011;18065;55.876;9.830;2024-03-23T01:45:55;3.83;;;1.70;;
31442;SDS011;18065;55.876;9.830;2024-03-23T01:48:23;4.75;;;1.38;;
31442;SDS011;18065;55.876;9.830;2024-03-23T01:50:49;3.83;;;1.23;;
31442;SDS011;18065;55.876;9.830;2024-03-23T01:53:16;4.18;;;1.42;;
31442;SDS011;18065;55.876;9.830;2024-03-23T01:55:42;2.75;;;1.05;;
31442;SDS011;18065;55.876;9.830;2024-03-23T01:58:09;3.25;;;1.50;;
31442;SDS011;18065;55.876;9.830;2024-03-23T02:00:35;4.25;;;1.20;;
31442;SDS011;18065;55.876;9.830;2024-03-23T02:03:11;2.83;;;1.27;;
31442;SDS011;18065;55.876;9.830;2024-03-23T02:05:48;3.22;;;1.10;;
31442;SDS011;18065;55.876;9.830;2024-03-23T02:08:14;5.25;;;1.23;;
31442;SDS011;18065;55.876;9.830;2024-03-23T02:10:40;3.72;;;1.40;;
31442;SDS011;18065;55.876;9.830;2024-03-23T02:13:06;4.78;;;1.70;;
31442;SDS011;18065;55.876;9.830;2024-03-23T02:15:32;3.78;;;1.60;;
31442;SDS011;18065;55.876;9.830;2024-03-23T02:17:59;3.60;;;1.33;;
31442;SDS011;18065;55.876;9.830;2024-03-23T02:20:28;5.80;;;1.60;;
31442;SDS011;18065;55.876;9.830;2024-03-23T02:22:56;3.55;;;1.08;;
31442;SDS011;18065;55.876;9.830;2024-03-23T02:25:22;4.15;;;1.33;;
31442;SDS011;18065;55.876;9.830;2024-03-23T02:27:48;2.75;;;1.20;;
31442;SDS011;18065;55.876;9.830;2024-03-23T02:30:15;3.05;;;1.35;;
31442;SDS011;18065;55.876;9.830;2024-03-23T02:32:41;3.70;;;1.25;;
31442;SDS011;18065;55.876;9.830;2024-03-23T02:35:07;3.35;;;1.50;;
31442;SDS011;18065;55.876;9.830;2024-03-23T02:37:33;3.67;;;1.65;;
31442;SDS011;18065;55.876;9.830;2024-03-23T02:40:02;2.28;;;1.20;;
31442;SDS011;18065;55.876;9.830;2024-03-23T02:42:28;4.35;;;1.45;;
31442;SDS011;18065;55.876;9.830;2024-03-23T02:44:55;4.93;;;1.50;;
31442;SDS011;18065;55.876;9.830;2024-03-23T02:47:21;4.40;;;1.83;;
31442;SDS011;18065;55.876;9.830;2024-03-23T02:49:47;3.50;;;1.27;;
31442;SDS011;18065;55.876;9.830;2024-03-23T02:52:13;4.60;;;1.30;;
31442;SDS011;18065;55.876;9.830;2024-03-23T02:54:39;2.25;;;1.30;;
31442;SDS011;18065;55.876;9.830;2024-03-23T02:57:08;3.88;;;1.65;;
31442;SDS011;18065;55.876;9.830;2024-03-23T02:59:34;4.43;;;1.30;;
31442;SDS011;18065;55.876;9.830;2024-03-23T03:02:00;3.70;;;1.50;;
31442;SDS011;18065;55.876;9.830;2024-03-23T03:04:27;2.95;;;1.20;;
31442;SDS011;18065;55.876;9.830;2024-03-23T03:06:53;2.28;;;1.00;;
31442;SDS011;18065;55.876;9.830;2024-03-23T03:09:19;5.75;;;1.05;;
31442;SDS011;18065;55.876;9.830;2024-03-23T03:11:45;3.95;;;1.20;;
31442;SDS011;18065;55.876;9.830;2024-03-23T03:14:14;2.45;;;1.20;;
31442;SDS011;18065;55.876;9.830;2024-03-23T03:16:40;5.18;;;1.35;;
31442;SDS011;18065;55.876;9.830;2024-03-23T03:19:06;2.80;;;1.38;;
31442;SDS011;18065;55.876;9.830;2024-03-23T03:21:32;3.72;;;1.42;;
31442;SDS011;18065;55.876;9.830;2024-03-23T03:23:58;3.08;;;1.20;;
31442;SDS011;18065;55.876;9.830;2024-03-23T03:26:24;4.18;;;1.48;;
31442;SDS011;18065;55.876;9.830;2024-03-23T03:28:51;3.78;;;1.27;;
31442;SDS011;18065;55.876;9.830;2024-03-23T03:31:19;3.97;;;1.40;;
31442;SDS011;18065;55.876;9.830;2024-03-23T03:33:46;3.30;;;1.23;;
31442;SDS011;18065;55.876;9.830;2024-03-23T03:36:12;3.88;;;1.25;;
31442;SDS011;18065;55.876;9.830;2024-03-23T03:38:38;3.63;;;1.40;;
31442;SDS011;18065;55.876;9.830;2024-03-23T03:41:04;4.90;;;1.40;;
31442;SDS011;18065;55.876;9.830;2024-03-23T03:43:31;2.53;;;1.13;;
31442;SDS011;18065;55.876;9.830;2024-03-23T03:45:59;3.63;;;1.30;;
31442;SDS011;18065;55.876;9.830;2024-03-23T03:48:28;2.03;;;1.20;;
31442;SDS011;18065;55.876;9.830;2024-03-23T03:50:54;5.22;;;1.60;;
31442;SDS011;18065;55.876;9.830;2024-03-23T03:53:21;5.35;;;1.50;;
31442;SDS011;18065;55.876;9.830;2024-03-23T03:55:47;3.80;;;1.50;;
31442;SDS011;18065;55.876;9.830;2024-03-23T03:58:13;5.30;;;1.48;;
31442;SDS011;18065;55.876;9.830;2024-03-23T04:00:39;2.40;;;1.20;;
31442;SDS011;18065;55.876;9.830;2024-03-23T04:03:05;4.07;;;1.27;;
31442;SDS011;18065;55.876;9.830;2024-03-23T04:05:34;3.50;;;1.30;;
31442;SDS011;18065;55.876;9.830;2024-03-23T04:08:00;4.45;;;1.30;;
31442;SDS011;18065;55.876;9.830;2024-03-23T04:10:27;5.03;;;1.17;;
31442;SDS011;18065;55.876;9.830;2024-03-23T04:12:53;4.28;;;1.58;;
31442;SDS011;18065;55.876;9.830;2024-03-23T04:15:19;3.40;;;1.00;;
31442;SDS011;18065;55.876;9.830;2024-03-23T04:17:48;2.60;;;1.20;;
31442;SDS011;18065;55.876;9.830;2024-03-23T04:20:14;3.90;;;1.08;;
31442;SDS011;18065;55.876;9.830;2024-03-23T04:22:43;2.20;;;1.17;;
31442;SDS011;18065;55.876;9.830;2024-03-23T04:25:10;3.22;;;1.00;;
31442;SDS011;18065;55.876;9.830;2024-03-23T04:27:36;3.80;;;1.30;;
31442;SDS011;18065;55.876;9.830;2024-03-23T04:30:03;1.98;;;1.10;;
31442;SDS011;18065;55.876;9.830;2024-03-23T04:32:31;4.10;;;1.50;;
31442;SDS011;18065;55.876;9.830;2024-03-23T04:34:57;3.70;;;1.00;;
31442;SDS011;18065;55.876;9.830;2024-03-23T04:37:23;3.15;;;1.10;;
31442;SDS011;18065;55.876;9.830;2024-03-23T04:39:52;4.07;;;1.55;;
31442;SDS011;18065;55.876;9.830;2024-03-23T04:42:18;2.28;;;1.30;;
31442;SDS011;18065;55.876;9.830;2024-03-23T04:44:44;5.70;;;1.30;;
31442;SDS011;18065;55.876;9.830;2024-03-23T04:47:10;2.10;;;1.05;;
31442;SDS011;18065;55.876;9.830;2024-03-23T04:49:36;3.80;;;1.23;;
31442;SDS011;18065;55.876;9.830;2024-03-23T04:52:03;6.30;;;1.65;;
31442;SDS011;18065;55.876;9.830;2024-03-23T04:54:29;3.03;;;1.08;;
31442;SDS011;18065;55.876;9.830;2024-03-23T04:56:59;5.30;;;1.50;;
31442;SDS011;18065;55.876;9.830;2024-03-23T04:59:25;3.35;;;1.02;;
31442;SDS011;18065;55.876;9.830;2024-03-23T05:01:51;4.30;;;1.10;;
31442;SDS011;18065;55.876;9.830;2024-03-23T05:04:17;2.53;;;1.10;;
31442;SDS011;18065;55.876;9.830;2024-03-23T05:06:43;5.38;;;1.30;;
31442;SDS011;18065;55.876;9.830;2024-03-23T05:09:10;5.07;;;1.38;;
31442;SDS011;18065;55.876;9.830;2024-03-23T05:11:37;4.15;;;1.23;;
31442;SDS011;18065;55.876;9.830;2024-03-23T05:14:06;4.47;;;1.33;;
31442;SDS011;18065;55.876;9.830;2024-03-23T05:16:32;3.22;;;1.20;;
31442;SDS011;18065;55.876;9.830;2024-03-23T05:18:58;3.15;;;1.10;;
31442;SDS011;18065;55.876;9.830;2024-03-23T05:21:24;3.10;;;1.20;;
31442;SDS011;18065;55.876;9.830;2024-03-23T05:23:50;5.63;;;1.20;;
31442;SDS011;18065;55.876;9.830;2024-03-23T05:26:17;3.63;;;1.35;;
31442;SDS011;18065;55.876;9.830;2024-03-23T05:28:43;3.40;;;1.10;;
31442;SDS011;18065;55.876;9.830;2024-03-23T05:31:12;2.90;;;1.27;;
31442;SDS011;18065;55.876;9.830;2024-03-23T05:33:38;3.53;;;1.45;;
31442;SDS011;18065;55.876;9.830;2024-03-23T05:36:04;4.45;;;1.20;;
31442;SDS011;18065;55.876;9.830;2024-03-23T05:38:31;3.95;;;1.15;;
31442;SDS011;18065;55.876;9.830;2024-03-23T05:40:57;4.68;;;1.38;;
31442;SDS011;18065;55.876;9.830;2024-03-23T05:43:24;3.42;;;1.33;;
31442;SDS011;18065;55.876;9.830;2024-03-23T05:45:54;3.30;;;1.10;;
31442;SDS011;18065;55.876;9.830;2024-03-23T05:48:23;3.13;;;0.90;;
31442;SDS011;18065;55.876;9.830;2024-03-23T05:50:51;2.83;;;1.08;;
31442;SDS011;18065;55.876;9.830;2024-03-23T05:53:18;4.35;;;1.15;;
31442;SDS011;18065;55.876;9.830;2024-03-23T05:55:44;3.65;;;1.08;;
31442;SDS011;18065;55.876;9.830;2024-03-23T05:58:11;2.33;;;1.10;;
31442;SDS011;18065;55.876;9.830;2024-03-23T06:00:37;2.50;;;1.08;;
31442;SDS011;18065;55.876;9.830;2024-03-23T06:03:03;3.00;;;1.13;;
31442;SDS011;18065;55.876;9.830;2024-03-23T06:05:32;3.95;;;1.30;;
31442;SDS011;18065;55.876;9.830;2024-03-23T06:07:58;3.20;;;1.42;;
31442;SDS011;18065;55.876;9.830;2024-03-23T06:10:25;4.32;;;1.38;;
31442;SDS011;18065;55.876;9.830;2024-03-23T06:12:51;3.35;;;1.40;;
31442;SDS011;18065;55.876;9.830;2024-03-23T06:15:17;3.08;;;1.35;;
31442;SDS011;18065;55.876;9.830;2024-03-23T06:17:43;2.50;;;1.02;;
31442;SDS011;18065;55.876;9.830;2024-03-23T06:20:10;4.15;;;1.58;;
31442;SDS011;18065;55.876;9.830;2024-03-23T06:22:38;2.78;;;1.15;;
31442;SDS011;18065;55.876;9.830;2024-03-23T06:25:05;4.35;;;1.00;;
31442;SDS011;18065;55.876;9.830;2024-03-23T06:27:31;2.83;;;1.10;;
31442;SDS011;18065;55.876;9.830;2024-03-23T06:29:58;3.15;;;1.15;;
31442;SDS011;18065;55.876;9.830;2024-03-23T06:32:24;2.63;;;0.88;;
31442;SDS011;18065;55.876;9.830;2024-03-23T06:34:50;2.63;;;0.90;;
31442;SDS011;18065;55.876;9.830;2024-03-23T06:37:16;3.28;;;1.50;;
31442;SDS011;18065;55.876;9.830;2024-03-23T06:39:45;3.60;;;1.38;;
31442;SDS011;18065;55.876;9.830;2024-03-23T06:42:12;3.55;;;1.20;;
31442;SDS011;18065;55.876;9.830;2024-03-23T06:44:38;2.40;;;1.20;;
31442;SDS011;18065;55.876;9.830;2024-03-23T06:47:05;3.30;;;1.00;;
31442;SDS011;18065;55.876;9.830;2024-03-23T06:49:31;2.17;;;0.90;;
31442;SDS011;18065;55.876;9.830;2024-03-23T06:51:57;2.80;;;1.10;;
31442;SDS011;18065;55.876;9.830;2024-03-23T06:54:24;4.90;;;1.08;;
31442;SDS011;18065;55.876;9.830;2024-03-23T06:56:53;2.95;;;1.13;;
31442;SDS011;18065;55.876;9.830;2024-03-23T06:59:19;2.33;;;1.05;;
31442;SDS011;18065;55.876;9.830;2024-03-23T07:01:45;3.28;;;1.15;;
31442;SDS011;18065;55.876;9.830;2024-03-23T07:04:11;2.70;;;0.88;;
31442;SDS011;18065;55.876;9.830;2024-03-23T07:06:42;4.53;;;1.45;;
31442;SDS011;18065;55.876;9.830;2024-03-23T07:09:08;4.63;;;1.63;;
31442;SDS011;18065;55.876;9.830;2024-03-23T07:11:34;2.90;;;1.10;;
31442;SDS011;18065;55.876;9.830;2024-03-23T07:14:03;3.08;;;1.25;;
31442;SDS011;18065;55.876;9.830;2024-03-23T07:16:29;3.67;;;1.15;;
31442;SDS011;18065;55.876;9.830;2024-03-23T07:18:55;1.65;;;0.98;;
31442;SDS011;18065;55.876;9.830;2024-03-23T07:21:21;3.35;;;1.30;;
31442;SDS011;18065;55.876;9.830;2024-03-23T07:23:47;4.38;;;1.00;;
31442;SDS011;18065;55.876;9.830;2024-03-23T07:26:14;5.47;;;1.35;;
31442;SDS011;18065;55.876;9.830;2024-03-23T07:28:40;15.88;;;2.55;;
31442;SDS011;18065;55.876;9.830;2024-03-23T07:31:10;22.70;;;2.95;;
31442;SDS011;18065;55.876;9.830;2024-03-23T07:33:42;11.73;;;2.47;;
31442;SDS011;18065;55.876;9.830;2024-03-23T07:36:09;17.73;;;2.72;;
31442;SDS011;18065;55.876;9.830;2024-03-23T07:38:35;17.00;;;3.50;;
31442;SDS011;18065;55.876;9.830;2024-03-23T07:41:05;12.50;;;2.95;;
31442;SDS011;18065;55.876;9.830;2024-03-23T07:43:31;9.32;;;2.70;;
31442;SDS011;18065;55.876;9.830;2024-03-23T07:45:57;16.92;;;2.92;;
31442;SDS011;18065;55.876;9.830;2024-03-23T07:48:27;13.70;;;3.50;;
31442;SDS011;18065;55.876;9.830;2024-03-23T07:51:01;15.90;;;3.20;;
31442;SDS011;18065;55.876;9.830;2024-03-23T07:53:28;14.15;;;3.38;;
31442;SDS011;18065;55.876;9.830;2024-03-23T07:55:54;16.30;;;3.63;;
31442;SDS011;18065;55.876;9.830;2024-03-23T07:58:22;19.10;;;3.30;;
31442;SDS011;18065;55.876;9.830;2024-03-23T08:00:48;10.65;;;2.83;;
31442;SDS011;18065;55.876;9.830;2024-03-23T08:03:15;12.65;;;3.20;;
31442;SDS011;18065;55.876;9.830;2024-03-23T08:05:44;14.38;;;3.08;;
31442;SDS011;18065;55.876;9.830;2024-03-23T08:08:10;14.43;;;3.30;;
31442;SDS011;18065;55.876;9.830;2024-03-23T08:10:36;14.57;;;3.75;;
31442;SDS011;18065;55.876;9.830;2024-03-23T08:13:02;10.90;;;3.13;;
31442;SDS011;18065;55.876;9.830;2024-03-23T08:15:30;15.98;;;3.30;;
31442;SDS011;18065;55.876;9.830;2024-03-23T08:17:58;11.02;;;3.17;;
31442;SDS011;18065;55.876;9.830;2024-03-23T08:20:25;12.93;;;2.60;;
31442;SDS011;18065;55.876;9.830;2024-03-23T08:22:54;12.93;;;3.00;;
31442;SDS011;18065;55.876;9.830;2024-03-23T08:25:20;13.88;;;3.53;;
31442;SDS011;18065;55.876;9.830;2024-03-23T08:27:46;14.95;;;3.05;;
31442;SDS011;18065;55.876;9.830;2024-03-23T08:30:12;11.00;;;2.70;;
31442;SDS011;18065;55.876;9.830;2024-03-23T08:32:39;10.20;;;2.65;;
31442;SDS011;18065;55.876;9.830;2024-03-23T08:35:05;8.63;;;2.35;;
31442;SDS011;18065;55.876;9.830;2024-03-23T08:37:32;10.98;;;2.50;;
31442;SDS011;18065;55.876;9.830;2024-03-23T08:40:01;9.48;;;2.25;;
31442;SDS011;18065;55.876;9.830;2024-03-23T08:42:28;6.38;;;2.60;;
31442;SDS011;18065;55.876;9.830;2024-03-23T08:44:54;9.90;;;2.63;;
31442;SDS011;18065;55.876;9.830;2024-03-23T08:47:20;10.07;;;2.67;;
31442;SDS011;18065;55.876;9.830;2024-03-23T08:49:46;12.88;;;2.53;;
31442;SDS011;18065;55.876;9.830;2024-03-23T08:52:12;8.82;;;2.38;;
31442;SDS011;18065;55.876;9.830;2024-03-23T08:54:38;10.00;;;2.72;;
31442;SDS011;18065;55.876;9.830;2024-03-23T08:57:07;8.18;;;2.45;;
31442;SDS011;18065;55.876;9.830;2024-03-23T08:59:34;7.85;;;2.17;;
31442;SDS011;18065;55.876;9.830;2024-03-23T09:02:00;8.05;;;2.53;;
31442;SDS011;18065;55.876;9.830;2024-03-23T09:04:26;6.55;;;1.90;;
31442;SDS011;18065;55.876;9.830;2024-03-23T09:06:52;10.38;;;2.20;;
31442;SDS011;18065;55.876;9.830;2024-03-23T09:09:18;10.55;;;2.65;;
31442;SDS011;18065;55.876;9.830;2024-03-23T09:11:45;5.63;;;2.30;;
31442;SDS011;18065;55.876;9.830;2024-03-23T09:14:14;9.68;;;2.78;;
31442;SDS011;18065;55.876;9.830;2024-03-23T09:16:40;7.90;;;2.42;;
31442;SDS011;18065;55.876;9.830;2024-03-23T09:19:06;5.97;;;2.05;;
31442;SDS011;18065;55.876;9.830;2024-03-23T09:21:32;8.02;;;2.15;;
31442;SDS011;18065;55.876;9.830;2024-03-23T09:23:58;8.50;;;2.00;;
31442;SDS011;18065;55.876;9.830;2024-03-23T09:26:24;7.32;;;2.38;;
31442;SDS011;18065;55.876;9.830;2024-03-23T09:28:50;9.77;;;2.38;;
31442;SDS011;18065;55.876;9.830;2024-03-23T09:31:19;7.88;;;2.28;;
31442;SDS011;18065;55.876;9.830;2024-03-23T09:33:45;7.00;;;2.20;;
31442;SDS011;18065;55.876;9.830;2024-03-23T09:36:11;10.32;;;1.80;;
31442;SDS011;18065;55.876;9.830;2024-03-23T09:38:38;5.50;;;2.15;;
31442;SDS011;18065;55.876;9.830;2024-03-23T09:41:06;8.95;;;2.50;;
31442;SDS011;18065;55.876;9.830;2024-03-23T09:43:33;7.22;;;2.33;;
31442;SDS011;18065;55.876;9.830;2024-03-23T09:45:59;7.80;;;1.95;;
31442;SDS011;18065;55.876;9.830;2024-03-23T09:48:29;9.27;;;2.22;;
31442;SDS011;18065;55.876;9.830;2024-03-23T09:50:55;7.80;;;1.85;;
31442;SDS011;18065;55.876;9.830;2024-03-23T09:53:22;9.85;;;2.38;;
31442;SDS011;18065;55.876;9.830;2024-03-23T09:55:48;11.25;;;2.63;;
31442;SDS011;18065;55.876;9.830;2024-03-23T09:58:15;10.75;;;2.30;;
31442;SDS011;18065;55.876;9.830;2024-03-23T10:00:42;10.25;;;2.50;;
31442;SDS011;18065;55.876;9.830;2024-03-23T10:03:09;8.50;;;2.33;;
31442;SDS011;18065;55.876;9.830;2024-03-23T10:05:38;5.43;;;1.70;;
31442;SDS011;18065;55.876;9.830;2024-03-23T10:08:17;8.77;;;2.40;;
31442;SDS011;18065;55.876;9.830;2024-03-23T10:10:44;8.05;;;2.08;;
31442;SDS011;18065;55.876;9.830;2024-03-23T10:13:11;8.15;;;2.58;;
31442;SDS011;18065;55.876;9.830;2024-03-23T10:15:51;6.10;;;2.28;;
31442;SDS011;18065;55.876;9.830;2024-03-23T10:18:20;6.15;;;2.20;;
31442;SDS011;18065;55.876;9.830;2024-03-23T10:20:50;8.73;;;2.33;;
31442;SDS011;18065;55.876;9.830;2024-03-23T10:23:17;6.43;;;1.80;;
31442;SDS011;18065;55.876;9.830;2024-03-23T10:25:43;8.95;;;2.33;;
31442;SDS011;18065;55.876;9.830;2024-03-23T10:28:09;8.20;;;2.38;;
31442;SDS011;18065;55.876;9.830;2024-03-23T10:30:36;11.98;;;2.50;;
31442;SDS011;18065;55.876;9.830;2024-03-23T10:33:08;8.00;;;2.15;;
31442;SDS011;18065;55.876;9.830;2024-03-23T10:35:36;6.18;;;1.85;;
31442;SDS011;18065;55.876;9.830;2024-03-23T10:38:06;6.97;;;2.15;;
31442;SDS011;18065;55.876;9.830;2024-03-23T10:40:34;13.85;;;2.63;;
31442;SDS011;18065;55.876;9.830;2024-03-23T10:43:00;9.00;;;1.98;;
31442;SDS011;18065;55.876;9.830;2024-03-23T10:45:29;5.45;;;1.80;;
31442;SDS011;18065;55.876;9.830;2024-03-23T10:47:55;7.07;;;2.72;;
31442;SDS011;18065;55.876;9.830;2024-03-23T10:50:22;13.30;;;5.32;;
31442;SDS011;18065;55.876;9.830;2024-03-23T10:52:48;106.25;;;34.45;;
31442;SDS011;18065;55.876;9.830;2024-03-23T10:55:17;413.08;;;127.28;;
31442;SDS011;18065;55.876;9.830;2024-03-23T10:57:49;606.08;;;209.73;;
31442;SDS011;18065;55.876;9.830;2024-03-23T11:00:17;775.05;;;277.10;;
31442;SDS011;18065;55.876;9.830;2024-03-23T11:02:43;838.38;;;306.58;;
31442;SDS011;18065;55.876;9.830;2024-03-23T11:07:54;662.13;;;228.82;;
31442;SDS011;18065;55.876;9.830;2024-03-23T11:10:29;731.95;;;264.35;;
31442;SDS011;18065;55.876;9.830;2024-03-23T11:12:56;757.70;;;270.30;;
31442;SDS011;18065;55.876;9.830;2024-03-23T11:15:24;795.35;;;287.58;;
31442;SDS011;18065;55.876;9.830;2024-03-23T11:18:03;782.38;;;295.55;;
31442;SDS011;18065;55.876;9.830;2024-03-23T11:20:34;846.13;;;317.17;;
31442;SDS011;18065;55.876;9.830;2024-03-23T11:23:00;872.13;;;324.60;;
31442;SDS011;18065;55.876;9.830;2024-03-23T11:25:29;848.92;;;315.85;;
31442;SDS011;18065;55.876;9.830;2024-03-23T11:27:56;848.92;;;318.15;;
31442;SDS011;18065;55.876;9.830;2024-03-23T11:30:24;883.63;;;331.02;;
31442;SDS011;18065;55.876;9.830;2024-03-23T11:32:51;878.38;;;326.63;;
31442;SDS011;18065;55.876;9.830;2024-03-23T11:35:25;825.33;;;316.98;;
31442;SDS011;18065;55.876;9.830;2024-03-23T11:38:02;808.75;;;309.90;;
31442;SDS011;18065;55.876;9.830;2024-03-23T11:40:32;805.78;;;307.10;;
31442;SDS011;18065;55.876;9.830;2024-03-23T11:42:59;782.38;;;296.52;;
31442;SDS011;18065;55.876;9.830;2024-03-23T11:45:26;736.60;;;280.50;;
31442;SDS011;18065;55.876;9.830;2024-03-23T11:48:02;727.97;;;279.08;;
31442;SDS011;18065;55.876;9.830;2024-03-23T11:50:32;726.00;;;273.70;;
31442;SDS011;18065;55.876;9.830;2024-03-23T11:55:48;704.00;;;276.48;;
31442;SDS011;18065;55.876;9.830;2024-03-23T11:58:15;715.85;;;277.50;;
31442;SDS011;18065;55.876;9.830;2024-03-23T12:00:42;692.03;;;277.42;;
31442;SDS011;18065;55.876;9.830;2024-03-23T12:03:17;710.17;;;282.13;;
31442;SDS011;18065;55.876;9.830;2024-03-23T12:05:47;651.13;;;255.55;;
31442;SDS011;18065;55.876;9.830;2024-03-23T12:08:15;640.50;;;252.88;;
31442;SDS011;18065;55.876;9.830;2024-03-23T12:10:43;609.08;;;242.43;;
31442;SDS011;18065;55.876;9.830;2024-03-23T12:13:13;569.78;;;232.68;;
31442;SDS011;18065;55.876;9.830;2024-03-23T12:15:41;560.45;;;223.93;;
31442;SDS011;18065;55.876;9.830;2024-03-23T12:18:07;542.85;;;211.40;;
31442;SDS011;18065;55.876;9.830;2024-03-23T12:20:33;526.25;;;209.23;;
31442;SDS011;18065;55.876;9.830;2024-03-23T12:23:07;504.10;;;202.55;;
31442;SDS011;18065;55.876;9.830;2024-03-23T12:25:34;522.22;;;208.30;;
31442;SDS011;18065;55.876;9.830;2024-03-23T12:28:00;517.25;;;203.43;;
31442;SDS011;18065;55.876;9.830;2024-03-23T12:30:30;510.70;;;197.77;;
31442;SDS011;18065;55.876;9.830;2024-03-23T12:32:56;502.65;;;196.18;;
31442;SDS011;18065;55.876;9.830;2024-03-23T12:35:22;476.20;;;186.52;;
31442;SDS011;18065;55.876;9.830;2024-03-23T12:37:48;466.67;;;177.15;;
31442;SDS011;18065;55.876;9.830;2024-03-23T12:40:14;443.77;;;170.88;;
31442;SDS011;18065;55.876;9.830;2024-03-23T12:42:41;447.20;;;170.07;;
31442;SDS011;18065;55.876;9.830;2024-03-23T12:45:07;437.85;;;165.02;;
31442;SDS011;18065;55.876;9.830;2024-03-23T12:47:37;430.98;;;159.63;;
31442;SDS011;18065;55.876;9.830;2024-03-23T12:50:04;401.52;;;147.93;;
31442;SDS011;18065;55.876;9.830;2024-03-23T12:52:31;403.00;;;145.50;;
31442;SDS011;18065;55.876;9.830;2024-03-23T12:54:57;368.80;;;135.10;;
31442;SDS011;18065;55.876;9.830;2024-03-23T12:57:23;346.30;;;129.07;;
31442;SDS011;18065;55.876;9.830;2024-03-23T12:59:50;323.38;;;120.68;;
31442;SDS011;18065;55.876;9.830;2024-03-23T13:02:17;326.17;;;122.38;;
31442;SDS011;18065;55.876;9.830;2024-03-23T13:04:46;286.20;;;111.85;;
31442;SDS011;18065;55.876;9.830;2024-03-23T13:07:15;282.92;;;105.90;;
31442;SDS011;18065;55.876;9.830;2024-03-23T13:09:41;262.42;;;97.22;;
31442;SDS011;18065;55.876;9.830;2024-03-23T13:12:08;233.82;;;94.40;;
31442;SDS011;18065;55.876;9.830;2024-03-23T13:14:34;247.80;;;96.07;;
31442;SDS011;18065;55.876;9.830;2024-03-23T13:17:00;234.75;;;93.32;;
31442;SDS011;18065;55.876;9.830;2024-03-23T13:19:27;251.65;;;94.18;;
31442;SDS011;18065;55.876;9.830;2024-03-23T13:21:56;219.27;;;91.68;;
31442;SDS011;18065;55.876;9.830;2024-03-23T13:24:22;224.20;;;91.65;;
31442;SDS011;18065;55.876;9.830;2024-03-23T13:26:49;221.25;;;91.57;;
31442;SDS011;18065;55.876;9.830;2024-03-23T13:29:16;208.57;;;85.15;;
31442;SDS011;18065;55.876;9.830;2024-03-23T13:31:42;206.18;;;84.80;;
31442;SDS011;18065;55.876;9.830;2024-03-23T13:34:08;181.45;;;75.88;;
31442;SDS011;18065;55.876;9.830;2024-03-23T13:36:35;191.30;;;73.80;;
31442;SDS011;18065;55.876;9.830;2024-03-23T13:39:04;187.27;;;76.00;;
31442;SDS011;18065;55.876;9.830;2024-03-23T13:41:30;177.23;;;70.30;;
31442;SDS011;18065;55.876;9.830;2024-03-23T13:43:57;170.65;;;70.80;;
31442;SDS011;18065;55.876;9.830;2024-03-23T13:46:23;169.32;;;67.55;;
31442;SDS011;18065;55.876;9.830;2024-03-23T13:48:49;173.23;;;67.18;;
31442;SDS011;18065;55.876;9.830;2024-03-23T13:51:15;159.35;;;68.07;;
31442;SDS011;18065;55.876;9.830;2024-03-23T13:53:49;157.63;;;64.00;;
31442;SDS011;18065;55.876;9.830;2024-03-23T13:56:18;147.45;;;60.95;;
31442;SDS011;18065;55.876;9.830;2024-03-23T13:58:44;130.88;;;52.97;;
31442;SDS011;18065;55.876;9.830;2024-03-23T14:01:11;134.50;;;53.28;;
31442;SDS011;18065;55.876;9.830;2024-03-23T14:03:37;127.03;;;52.15;;
31442;SDS011;18065;55.876;9.830;2024-03-23T14:06:04;127.15;;;53.22;;
31442;SDS011;18065;55.876;9.830;2024-03-23T14:08:30;130.75;;;53.45;;
31442;SDS011;18065;55.876;9.830;2024-03-23T14:10:57;131.13;;;50.72;;
31442;SDS011;18065;55.876;9.830;2024-03-23T14:13:26;122.82;;;52.17;;
31442;SDS011;18065;55.876;9.830;2024-03-23T14:15:53;119.18;;;51.90;;
31442;SDS011;18065;55.876;9.830;2024-03-23T14:18:19;133.38;;;52.35;;
31442;SDS011;18065;55.876;9.830;2024-03-23T14:20:45;122.32;;;52.50;;
31442;SDS011;18065;55.876;9.830;2024-03-23T14:23:11;119.75;;;50.03;;
31442;SDS011;18065;55.876;9.830;2024-03-23T14:25:38;104.38;;;46.97;;
31442;SDS011;18065;55.876;9.830;2024-03-23T14:28:04;111.32;;;46.47;;
31442;SDS011;18065;55.876;9.830;2024-03-23T14:30:33;104.10;;;43.70;;
31442;SDS011;18065;55.876;9.830;2024-03-23T14:32:59;89.18;;;36.85;;
31442;SDS011;18065;55.876;9.830;2024-03-23T14:35:25;88.20;;;37.25;;
31442;SDS011;18065;55.876;9.830;2024-03-23T14:37:51;78.05;;;34.92;;
31442;SDS011;18065;55.876;9.830;2024-03-23T14:40:18;81.22;;;34.80;;
31442;SDS011;18065;55.876;9.830;2024-03-23T14:42:44;72.00;;;33.25;;
31442;SDS011;18065;55.876;9.830;2024-03-23T14:45:10;68.57;;;30.55;;
31442;SDS011;18065;55.876;9.830;2024-03-23T14:47:39;68.82;;;32.25;;
31442;SDS011;18065;55.876;9.830;2024-03-23T14:50:05;64.78;;;28.13;;
31442;SDS011;18065;55.876;9.830;2024-03-23T14:52:33;62.72;;;27.67;;
31442;SDS011;18065;55.876;9.830;2024-03-23T14:54:59;52.13;;;25.02;;
31442;SDS011;18065;55.876;9.830;2024-03-23T14:57:25;59.92;;;25.10;;
31442;SDS011;18065;55.876;9.830;2024-03-23T14:59:51;55.28;;;24.90;;
31442;SDS011;18065;55.876;9.830;2024-03-23T15:02:17;54.92;;;24.80;;
31442;SDS011;18065;55.876;9.830;2024-03-23T15:04:46;61.90;;;24.55;;
31442;SDS011;18065;55.876;9.830;2024-03-23T15:07:12;56.42;;;25.42;;
31442;SDS011;18065;55.876;9.830;2024-03-23T15:09:38;57.13;;;25.63;;
31442;SDS011;18065;55.876;9.830;2024-03-23T15:12:05;56.47;;;26.30;;
31442;SDS011;18065;55.876;9.830;2024-03-23T15:14:32;61.30;;;28.88;;
31442;SDS011;18065;55.876;9.830;2024-03-23T15:16:58;61.20;;;27.92;;
31442;SDS011;18065;55.876;9.830;2024-03-23T15:19:25;58.42;;;27.73;;
31442;SDS011;18065;55.876;9.830;2024-03-23T15:21:53;69.45;;;28.52;;
31442;SDS011;18065;55.876;9.830;2024-03-23T15:24:20;54.92;;;26.70;;
31442;SDS011;18065;55.876;9.830;2024-03-23T15:26:46;50.28;;;25.20;;
31442;SDS011;18065;55.876;9.830;2024-03-23T15:29:12;53.72;;;25.35;;
31442;SDS011;18065;55.876;9.830;2024-03-23T15:31:38;52.85;;;25.38;;